Milngavie, United Kingdom
Current Conditions -  °F | °C
As of 9:50 AM on Saturday 29 Nov 2014 (Local Time) from EGPF Reporting Station
Overcast Overcast  
Wind Chill: 50°   Ceiling: 1900
Heat Index: 50°   Visibility: 5mi
Dew Point: 46°   Wind: 7mph
Humidity: 87%   Direction: 70°ENE
Pressure: 29.85"   Gusts: NA
Location:  55.94°N, 4.32°W
Report Text: EGPF 290950Z AUTO 07006KT 8000 OVC019 10/08 Q1011
Loading
Personal Weather Stations






























Interactive Weather Map New forecast layout! Learn more

10-Day Weather Forecast

Advertisements
Track Severe Weather on mobile